Time;durP1;ratioP1;P1;durP2;ratioP2;P2;SDS_P1;SDS_P2;PMS_P1;PMS_P2;Temp;Humidity;BMP_temperature;BMP_pressure;BME280_temperature;BME280_humidity;BME280_pressure;Samples;Min_cycle;Max_cycle;Signal;HPM_P1;HPM_P2
2021/03/25 00:02:10;;;;;;;1.20;0.50;;;6.90;99.90;;;;;;5038410;28;20473;-85
2021/03/25 00:04:36;;;;;;;0.37;0.37;;;6.70;99.90;;;;;;5047595;28;20196;-85
2021/03/25 00:07:02;;;;;;;1.40;0.53;;;6.70;99.90;;;;;;5040533;28;20594;-86
2021/03/25 00:09:38;;;;;;;1.60;0.43;;;6.70;99.90;;;;;;5039102;28;20203;-85
2021/03/25 00:12:04;;;;;;;0.27;0.27;;;6.70;99.90;;;;;;5051075;28;20189;-85
2021/03/25 00:14:30;;;;;;;0.40;0.40;;;6.80;99.90;;;;;;5039932;28;20560;-85
2021/03/25 00:16:55;;;;;;;0.57;0.57;;;6.70;99.90;;;;;;5040647;28;20191;-85
2021/03/25 00:19:21;;;;;;;1.47;1.40;;;6.80;99.90;;;;;;5036442;28;20305;-85
2021/03/25 00:21:47;;;;;;;0.73;0.53;;;6.80;99.90;;;;;;5045653;28;20215;-86
2021/03/25 00:24:16;;;;;;;0.90;0.53;;;6.80;99.90;;;;;;5034504;28;20190;-86
2021/03/25 00:26:42;;;;;;;0.50;0.23;;;6.90;99.90;;;;;;5032721;28;20211;-85
2021/03/25 00:29:11;;;;;;;0.27;0.27;;;6.90;99.90;;;;;;5042208;28;20237;-86
2021/03/25 00:31:37;;;;;;;1.13;0.60;;;7.00;99.90;;;;;;5039906;28;20602;-86
2021/03/25 00:34:02;;;;;;;0.33;0.27;;;6.90;99.90;;;;;;5043083;28;20204;-86
2021/03/25 00:36:28;;;;;;;0.13;0.13;;;6.90;99.90;;;;;;5046269;28;20178;-85
2021/03/25 00:38:54;;;;;;;0.83;0.50;;;6.90;99.90;;;;;;5043050;28;21103;-86
2021/03/25 00:41:20;;;;;;;0.40;0.40;;;6.80;99.90;;;;;;5044677;28;20698;-86
2021/03/25 00:43:46;;;;;;;0.50;0.27;;;6.60;99.90;;;;;;5037414;28;20182;-85
2021/03/25 00:46:12;;;;;;;0.43;0.43;;;6.70;99.90;;;;;;5032775;28;20279;-86
2021/03/25 00:48:37;;;;;;;0.20;0.20;;;6.40;99.90;;;;;;5043549;28;20235;-85
2021/03/25 00:51:03;;;;;;;3.47;0.80;;;6.30;99.90;;;;;;5037724;28;20553;-86
2021/03/25 00:53:32;;;;;;;0.50;0.43;;;6.30;99.90;;;;;;5043679;28;20187;-86
2021/03/25 00:55:59;;;;;;;0.40;0.40;;;6.40;99.90;;;;;;5039612;28;20191;-86
2021/03/25 00:58:25;;;;;;;1.03;0.33;;;6.40;99.90;;;;;;5041108;28;20667;-86
2021/03/25 01:00:51;;;;;;;0.13;0.13;;;6.40;99.90;;;;;;5046152;28;20552;-86
2021/03/25 01:03:19;;;;;;;0.33;0.30;;;6.20;99.90;;;;;;5040017;28;20646;-85
2021/03/25 01:05:45;;;;;;;0.20;0.20;;;6.20;99.90;;;;;;5040679;28;20203;-85
2021/03/25 01:08:11;;;;;;;0.30;0.20;;;6.10;99.90;;;;;;5049478;28;20211;-86
2021/03/25 01:10:44;;;;;;;0.47;0.47;;;6.20;99.90;;;;;;5036037;28;20230;-86
2021/03/25 01:13:15;;;;;;;0.30;0.30;;;6.10;99.90;;;;;;5048111;28;20216;-86
2021/03/25 01:15:41;;;;;;;0.10;0.10;;;6.00;99.90;;;;;;5039124;28;20591;-86
2021/03/25 01:18:08;;;;;;;0.77;0.77;;;6.00;99.90;;;;;;5043393;28;20186;-86
2021/03/25 01:20:39;;;;;;;0.13;0.13;;;6.00;99.90;;;;;;5035623;28;20227;-85
2021/03/25 01:23:06;;;;;;;0.53;0.53;;;6.10;99.90;;;;;;5052467;28;20184;-85
2021/03/25 01:25:34;;;;;;;1.23;0.50;;;6.10;99.90;;;;;;5048247;28;20190;-85
2021/03/25 01:28:03;;;;;;;0.20;0.17;;;6.20;99.90;;;;;;5038197;28;20559;-85
2021/03/25 01:30:31;;;;;;;0.20;0.20;;;6.30;99.90;;;;;;5041540;28;20268;-84
2021/03/25 01:32:57;;;;;;;0.17;0.17;;;6.30;99.90;;;;;;5045540;28;20192;-83
2021/03/25 01:35:24;;;;;;;2.13;0.50;;;6.20;99.90;;;;;;5036601;28;20709;-85
2021/03/25 01:37:50;;;;;;;0.57;0.43;;;6.20;99.90;;;;;;5043573;28;20252;-85
2021/03/25 01:40:21;;;;;;;0.13;0.13;;;6.30;99.90;;;;;;5040326;28;20624;-84
2021/03/25 01:42:47;;;;;;;0.30;0.30;;;6.30;99.90;;;;;;5042602;28;20556;-85
2021/03/25 01:45:40;;;;;;;0.40;0.40;;;6.20;99.90;;;;;;5036606;28;20195;-85
2021/03/25 01:48:07;;;;;;;3.43;0.60;;;6.20;99.90;;;;;;5042739;28;20174;-84
2021/03/25 01:50:32;;;;;;;0.30;0.30;;;6.20;99.90;;;;;;5044671;28;20584;-84
2021/03/25 01:53:35;;;;;;;0.27;0.27;;;6.10;99.90;;;;;;5041975;28;20183;-84
2021/03/25 01:56:03;;;;;;;0.20;0.20;;;6.20;99.90;;;;;;5048151;28;20185;-84
2021/03/25 01:58:44;;;;;;;3.10;1.13;;;6.00;99.90;;;;;;5042050;28;20186;-85
2021/03/25 02:01:15;;;;;;;0.33;0.30;;;5.70;99.90;;;;;;5036745;28;20682;-84
2021/03/25 02:04:07;;;;;;;0.50;0.50;;;5.50;99.90;;;;;;5041238;28;20198;-84
2021/03/25 02:06:41;;;;;;;0.40;0.40;;;5.40;99.90;;;;;;5047287;28;20193;-84
2021/03/25 02:09:16;;;;;;;1.07;0.60;;;5.30;99.90;;;;;;5053008;28;20723;-83
2021/03/25 02:12:12;;;;;;;0.40;0.40;;;5.40;99.90;;;;;;5041862;28;20216;-84
2021/03/25 02:14:47;;;;;;;0.20;0.20;;;5.60;99.90;;;;;;5047363;28;20200;-84
2021/03/25 02:17:25;;;;;;;0.40;0.10;;;5.70;99.90;;;;;;5034268;28;20601;-85
2021/03/25 02:20:11;;;;;;;0.30;0.30;;;5.70;99.90;;;;;;5033330;28;20352;-87
2021/03/25 02:23:05;;;;;;;0.03;0.03;;;5.80;99.90;;;;;;5051025;28;20202;-84
2021/03/25 02:25:46;;;;;;;0.97;0.70;;;5.80;99.90;;;;;;5046139;28;20183;-84
2021/03/25 02:28:50;;;;;;;0.47;0.47;;;5.80;99.90;;;;;;5045085;28;20643;-84
2021/03/25 02:31:24;;;;;;;0.23;0.23;;;5.90;99.90;;;;;;5051833;28;20197;-85
2021/03/25 02:33:53;;;;;;;0.40;0.40;;;5.90;99.90;;;;;;5040168;28;20189;-84
2021/03/25 02:36:27;;;;;;;0.67;0.67;;;5.80;99.90;;;;;;5051813;28;20284;-84
2021/03/25 02:39:05;;;;;;;0.10;0.10;;;5.90;99.90;;;;;;5046243;28;20196;-83
2021/03/25 02:41:37;;;;;;;0.30;0.13;;;5.80;99.90;;;;;;5042831;28;20576;-84
2021/03/25 02:44:31;;;;;;;1.10;0.40;;;5.80;99.90;;;;;;5032605;28;20171;-84
2021/03/25 02:47:08;;;;;;;0.40;0.40;;;5.80;99.90;;;;;;5045945;28;20400;-84
2021/03/25 02:49:41;;;;;;;1.20;0.33;;;5.80;99.90;;;;;;5040266;28;20285;-83
2021/03/25 02:52:21;;;;;;;0.33;0.20;;;5.80;99.90;;;;;;5034541;28;20187;-84
2021/03/25 02:54:47;;;;;;;0.27;0.27;;;5.80;99.90;;;;;;5050536;28;20207;-84
2021/03/25 02:57:29;;;;;;;0.47;0.20;;;5.80;99.90;;;;;;5041457;28;20187;-84
2021/03/25 03:00:02;;;;;;;0.60;0.60;;;5.60;99.90;;;;;;5035922;28;20213;-85
2021/03/25 03:02:36;;;;;;;0.20;0.20;;;5.50;99.90;;;;;;5043481;28;20174;-85
2021/03/25 03:05:13;;;;;;;0.27;0.27;;;5.60;99.90;;;;;;5037963;28;20612;-83
2021/03/25 03:07:57;;;;;;;0.33;0.33;;;5.60;99.90;;;;;;5035664;28;20698;-84
2021/03/25 03:10:33;;;;;;;0.87;0.40;;;5.70;99.90;;;;;;5038612;28;20212;-83
2021/03/25 03:13:01;;;;;;;0.07;0.07;;;5.70;99.90;;;;;;5032762;28;20186;-84
2021/03/25 03:15:32;;;;;;;0.00;0.00;;;5.70;99.90;;;;;;5045783;28;20244;-84
2021/03/25 03:18:00;;;;;;;0.30;0.20;;;5.60;99.90;;;;;;5035417;28;20188;-84
2021/03/25 03:20:59;;;;;;;0.20;0.20;;;5.60;99.90;;;;;;5040567;28;20309;-84
2021/03/25 03:23:33;;;;;;;0.10;0.10;;;5.60;99.90;;;;;;5048639;28;20569;-85
2021/03/25 03:26:06;;;;;;;0.57;0.30;;;5.50;99.90;;;;;;5038182;28;20178;-84
2021/03/25 03:28:41;;;;;;;0.10;0.10;;;5.50;99.90;;;;;;5041714;28;20228;-84
2021/03/25 03:31:11;;;;;;;0.37;0.37;;;5.50;99.90;;;;;;5036947;28;20186;-85
2021/03/25 03:33:43;;;;;;;0.13;0.13;;;5.50;99.90;;;;;;5047342;28;20190;-83
2021/03/25 03:36:13;;;;;;;0.50;0.47;;;5.50;99.90;;;;;;5033327;28;20645;-84
2021/03/25 03:38:49;;;;;;;0.83;0.30;;;5.40;99.90;;;;;;5041955;28;20190;-84
2021/03/25 03:41:23;;;;;;;0.50;0.50;;;5.40;99.90;;;;;;5033813;28;20678;-84
2021/03/25 03:43:50;;;;;;;0.33;0.33;;;5.40;99.90;;;;;;5044523;28;20186;-84
2021/03/25 03:46:26;;;;;;;0.10;0.10;;;5.40;99.90;;;;;;5039523;28;20185;-84
2021/03/25 03:49:09;;;;;;;0.47;0.17;;;5.30;99.90;;;;;;5034942;28;20181;-84
2021/03/25 03:51:48;;;;;;;0.40;0.40;;;5.40;99.90;;;;;;5038635;28;20194;-85
2021/03/25 03:54:15;;;;;;;0.37;0.37;;;5.40;99.90;;;;;;5038232;28;20197;-84
2021/03/25 03:57:11;;;;;;;0.33;0.33;;;5.40;99.90;;;;;;5036817;28;20186;-85
2021/03/25 03:59:56;;;;;;;0.20;0.20;;;5.40;99.90;;;;;;5035929;28;20200;-83
2021/03/25 04:02:54;;;;;;;0.20;0.20;;;5.40;99.90;;;;;;5041252;28;20170;-84
2021/03/25 04:05:25;;;;;;;0.30;0.30;;;5.40;99.90;;;;;;5043345;28;20189;-83
2021/03/25 04:08:01;;;;;;;0.30;0.30;;;5.30;99.90;;;;;;5039420;28;20740;-84
2021/03/25 04:10:32;;;;;;;0.43;0.30;;;5.10;99.90;;;;;;5036778;28;20206;-83
2021/03/25 04:13:01;;;;;;;0.10;0.10;;;5.00;99.90;;;;;;5048851;28;20186;-85
2021/03/25 04:15:29;;;;;;;2.77;0.83;;;5.00;99.90;;;;;;5050220;28;20733;-84
2021/03/25 04:18:06;;;;;;;0.57;0.57;;;4.90;99.90;;;;;;5040645;28;20211;-84
2021/03/25 04:20:32;;;;;;;0.20;0.20;;;4.90;99.90;;;;;;5044224;28;20705;-83
2021/03/25 04:23:03;;;;;;;0.40;0.40;;;4.90;99.90;;;;;;5031736;28;20214;-85
2021/03/25 04:25:39;;;;;;;0.97;0.50;;;4.90;99.90;;;;;;5041597;28;20681;-84
2021/03/25 04:28:11;;;;;;;1.07;0.97;;;4.90;99.90;;;;;;5039967;28;20699;-84
2021/03/25 04:30:43;;;;;;;0.10;0.10;;;4.90;99.90;;;;;;5045070;28;20810;-84
2021/03/25 04:33:09;;;;;;;0.03;0.03;;;5.00;99.90;;;;;;5052180;28;20277;-84
2021/03/25 04:35:35;;;;;;;0.10;0.10;;;5.10;99.90;;;;;;5043850;28;20208;-83
2021/03/25 04:38:03;;;;;;;0.10;0.10;;;5.00;99.90;;;;;;5053430;28;20190;-84
2021/03/25 04:40:31;;;;;;;0.60;0.60;;;4.80;99.90;;;;;;5054799;28;20690;-84
2021/03/25 04:42:57;;;;;;;0.33;0.33;;;4.70;99.90;;;;;;5052263;28;20191;-84
2021/03/25 04:45:46;;;;;;;0.47;0.47;;;4.50;99.90;;;;;;5049700;28;20178;-83
2021/03/25 04:48:19;;;;;;;2.63;0.73;;;4.50;99.90;;;;;;5036510;28;20205;-85
2021/03/25 04:51:02;;;;;;;0.10;0.10;;;4.50;99.90;;;;;;5039979;28;20193;-85
2021/03/25 04:53:34;;;;;;;0.23;0.23;;;4.60;99.90;;;;;;5037062;28;20650;-85
2021/03/25 04:56:02;;;;;;;0.20;0.20;;;4.70;99.90;;;;;;5050110;28;20195;-86
2021/03/25 04:58:27;;;;;;;0.30;0.30;;;4.80;99.90;;;;;;5045689;28;20609;-86
2021/03/25 05:00:53;;;;;;;0.30;0.20;;;4.80;99.90;;;;;;5051578;28;20218;-85
2021/03/25 05:03:24;;;;;;;0.43;0.43;;;4.70;99.90;;;;;;5055050;28;20259;-86
2021/03/25 05:05:54;;;;;;;0.40;0.20;;;4.70;99.90;;;;;;5045946;28;20872;-85
2021/03/25 05:08:24;;;;;;;0.53;0.53;;;4.80;99.90;;;;;;5045745;28;20183;-87
2021/03/25 05:11:11;;;;;;;0.30;0.30;;;4.90;99.90;;;;;;5042243;28;20206;-86
2021/03/25 05:13:42;;;;;;;0.50;0.50;;;5.00;99.90;;;;;;5049105;28;20195;-85
2021/03/25 05:16:07;;;;;;;0.10;0.10;;;5.00;99.90;;;;;;5038927;28;20188;-86
2021/03/25 05:18:37;;;;;;;0.90;0.30;;;5.00;99.90;;;;;;5052033;28;20266;-85
2021/03/25 05:21:15;;;;;;;0.37;0.30;;;5.00;99.90;;;;;;5042211;28;20205;-85
2021/03/25 05:23:59;;;;;;;0.47;0.30;;;5.00;99.90;;;;;;5047913;28;20178;-85
2021/03/25 05:26:44;;;;;;;0.93;0.47;;;5.10;99.90;;;;;;5049992;28;20173;-85
2021/03/25 05:29:12;;;;;;;0.33;0.33;;;5.10;99.90;;;;;;5044094;28;20202;-88
2021/03/25 05:31:40;;;;;;;1.30;0.37;;;5.10;99.90;;;;;;5051809;28;20211;-86
2021/03/25 05:34:08;;;;;;;0.50;0.50;;;5.10;99.90;;;;;;5045622;28;20179;-86
2021/03/25 05:36:35;;;;;;;0.27;0.27;;;5.20;99.90;;;;;;5065758;28;20647;-84
2021/03/25 05:39:01;;;;;;;0.10;0.10;;;5.20;99.90;;;;;;5045145;28;20677;-86
2021/03/25 05:42:04;;;;;;;1.23;0.57;;;5.30;99.90;;;;;;5052241;28;20212;-86
2021/03/25 05:45:08;;;;;;;0.83;0.40;;;5.40;99.90;;;;;;5035671;28;20178;-86
2021/03/25 05:48:08;;;;;;;0.77;0.70;;;5.40;99.90;;;;;;5054301;28;20175;-85
2021/03/25 05:50:56;;;;;;;0.20;0.10;;;5.10;99.90;;;;;;5046816;28;20197;-86
2021/03/25 05:53:44;;;;;;;0.20;0.20;;;5.00;99.90;;;;;;5050013;28;20676;-86
2021/03/25 05:56:33;;;;;;;0.10;0.10;;;5.00;99.90;;;;;;5041935;28;20207;-86
2021/03/25 05:59:09;;;;;;;0.10;0.10;;;5.00;99.90;;;;;;5049999;28;20260;-86
2021/03/25 06:01:47;;;;;;;0.30;0.10;;;5.10;99.90;;;;;;5037329;28;20198;-85
2021/03/25 06:04:19;;;;;;;0.10;0.10;;;5.30;99.90;;;;;;5055649;28;20177;-85
2021/03/25 06:07:10;;;;;;;0.10;0.10;;;5.40;99.90;;;;;;5052967;28;20648;-85
2021/03/25 06:10:00;;;;;;;0.17;0.17;;;5.60;99.90;;;;;;5054192;28;21106;-84
2021/03/25 06:12:29;;;;;;;0.50;0.50;;;5.80;99.90;;;;;;5047454;28;20191;-85
2021/03/25 06:15:13;;;;;;;0.27;0.27;;;5.90;99.90;;;;;;5040497;28;20634;-84
2021/03/25 06:18:06;;;;;;;1.13;0.60;;;6.10;99.90;;;;;;5051589;28;20184;-84
2021/03/25 06:21:02;;;;;;;0.13;0.13;;;6.10;99.90;;;;;;5050563;28;20252;-87
2021/03/25 06:23:49;;;;;;;0.00;0.00;;;6.20;99.90;;;;;;5038877;28;20272;-85
2021/03/25 06:26:26;;;;;;;0.63;0.40;;;6.20;99.90;;;;;;5046002;28;20237;-84
2021/03/25 06:29:02;;;;;;;0.20;0.20;;;6.20;99.90;;;;;;5041438;28;20212;-87
2021/03/25 06:31:38;;;;;;;0.50;0.47;;;6.20;99.90;;;;;;5045775;28;20189;-85
2021/03/25 06:34:15;;;;;;;0.47;0.47;;;6.20;99.90;;;;;;5045547;28;20181;-84
2021/03/25 06:36:46;;;;;;;0.73;0.73;;;6.30;99.90;;;;;;5050491;28;20701;-85
2021/03/25 06:39:34;;;;;;;0.43;0.43;;;6.30;99.90;;;;;;5056345;28;20225;-85
2021/03/25 06:42:28;;;;;;;0.40;0.40;;;6.50;99.90;;;;;;5049604;28;20263;-85
2021/03/25 06:45:09;;;;;;;1.57;1.13;;;6.70;99.90;;;;;;5047198;28;20267;-84
2021/03/25 06:48:00;;;;;;;0.40;0.40;;;6.70;99.90;;;;;;5038772;28;20542;-86
2021/03/25 06:50:39;;;;;;;0.23;0.23;;;6.60;99.90;;;;;;5049060;28;20236;-85
2021/03/25 06:53:10;;;;;;;2.83;1.13;;;6.90;99.90;;;;;;5048702;28;20205;-86
2021/03/25 06:55:36;;;;;;;0.60;0.60;;;6.80;99.90;;;;;;5050895;28;20217;-84
2021/03/25 06:58:15;;;;;;;2.27;1.07;;;6.60;99.90;;;;;;5043473;28;20258;-85
2021/03/25 07:00:57;;;;;;;0.60;0.60;;;6.60;99.90;;;;;;5046964;28;20293;-86
2021/03/25 07:03:24;;;;;;;1.30;0.60;;;7.00;99.90;;;;;;5044715;28;20541;-85
2021/03/25 07:05:50;;;;;;;0.50;0.30;;;7.30;99.90;;;;;;5048262;28;20556;-89
2021/03/25 07:08:28;;;;;;;1.23;1.13;;;7.60;99.90;;;;;;5048673;28;20634;-84
2021/03/25 07:10:58;;;;;;;0.30;0.23;;;7.80;99.90;;;;;;5038026;28;20245;-83
2021/03/25 07:13:40;;;;;;;0.40;0.40;;;7.90;99.90;;;;;;5036726;28;20201;-84
2021/03/25 07:16:08;;;;;;;2.03;0.87;;;7.70;99.90;;;;;;5042190;28;20655;-84
2021/03/25 07:18:56;;;;;;;4.73;0.80;;;8.10;99.90;;;;;;5038607;28;20242;-83
2021/03/25 07:21:45;;;;;;;0.47;0.47;;;8.20;99.90;;;;;;5039781;28;20405;-82
2021/03/25 07:24:37;;;;;;;0.37;0.13;;;8.30;99.90;;;;;;5039955;28;20212;-82
2021/03/25 07:27:12;;;;;;;0.70;0.60;;;8.50;99.90;;;;;;5043049;28;20326;-82
2021/03/25 07:29:40;;;;;;;1.10;1.00;;;8.70;99.90;;;;;;5045962;28;21070;-84
2021/03/25 07:32:06;;;;;;;0.63;0.50;;;8.80;99.90;;;;;;5042590;28;20194;-85
2021/03/25 07:34:38;;;;;;;0.30;0.30;;;8.90;99.90;;;;;;5047323;28;20195;-85
2021/03/25 07:37:06;;;;;;;0.90;0.63;;;9.00;99.90;;;;;;5047924;28;20188;-83
2021/03/25 07:39:47;;;;;;;0.30;0.30;;;9.00;99.90;;;;;;5038659;28;20240;-83
2021/03/25 07:42:24;;;;;;;0.50;0.37;;;9.10;99.90;;;;;;5062724;28;20218;-83
2021/03/25 07:44:49;;;;;;;1.90;1.30;;;8.80;99.90;;;;;;5042550;28;20175;-84
2021/03/25 07:47:27;;;;;;;0.30;0.30;;;9.00;99.90;;;;;;5045082;28;20182;-84
2021/03/25 07:49:53;;;;;;;0.87;0.83;;;9.20;99.90;;;;;;5040798;28;20287;-83
2021/03/25 07:52:31;;;;;;;0.43;0.43;;;9.50;99.90;;;;;;5043967;28;20189;-83
2021/03/25 07:55:20;;;;;;;1.23;0.63;;;9.80;99.90;;;;;;5039188;28;20938;-82
2021/03/25 07:57:49;;;;;;;1.07;1.00;;;9.60;99.90;;;;;;5034492;28;20193;-83
2021/03/25 08:00:16;;;;;;;0.27;0.27;;;9.90;99.90;;;;;;5044110;28;20348;-84
2021/03/25 08:02:42;;;;;;;0.87;0.47;;;10.10;99.90;;;;;;5041287;28;20189;-84
2021/03/25 08:05:29;;;;;;;0.77;0.60;;;10.20;99.90;;;;;;5043945;28;20656;-85
2021/03/25 08:07:59;;;;;;;0.47;0.47;;;10.60;99.90;;;;;;5053081;28;20323;-84
2021/03/25 08:10:33;;;;;;;0.40;0.40;;;10.90;99.90;;;;;;5044917;28;20254;-84
2021/03/25 08:13:21;;;;;;;0.70;0.70;;;10.90;99.90;;;;;;5042621;28;20186;-83
2021/03/25 08:15:48;;;;;;;0.30;0.30;;;10.70;99.90;;;;;;5046883;28;20185;-82
2021/03/25 08:18:52;;;;;;;0.77;0.60;;;11.00;99.90;;;;;;5043398;28;20722;-84
2021/03/25 08:21:33;;;;;;;1.10;0.70;;;10.90;99.90;;;;;;5034039;28;20649;-83
2021/03/25 08:24:16;;;;;;;0.33;0.27;;;11.30;99.90;;;;;;5048674;28;20197;-84
2021/03/25 08:27:01;;;;;;;0.90;0.50;;;11.40;99.90;;;;;;5048616;28;20231;-85
2021/03/25 08:29:58;;;;;;;1.37;0.83;;;11.60;99.90;;;;;;5050866;28;20200;-85
2021/03/25 08:32:48;;;;;;;0.33;0.33;;;11.50;99.90;;;;;;5050530;28;20194;-83
2021/03/25 08:35:58;;;;;;;1.33;0.53;;;11.70;99.90;;;;;;5056257;28;20174;-84
2021/03/25 08:38:51;;;;;;;1.00;1.00;;;11.90;99.90;;;;;;5050656;28;20205;-84
2021/03/25 08:41:26;;;;;;;0.80;0.80;;;12.00;99.90;;;;;;5050599;28;20229;-83
2021/03/25 08:44:00;;;;;;;0.97;0.40;;;12.10;99.90;;;;;;5037841;28;20186;-85
2021/03/25 08:46:33;;;;;;;0.20;0.20;;;12.20;99.90;;;;;;5039243;28;20225;-84
2021/03/25 08:49:10;;;;;;;2.60;1.73;;;12.40;99.90;;;;;;5045173;28;20215;-85
2021/03/25 08:51:42;;;;;;;2.47;0.60;;;12.50;99.90;;;;;;5055052;28;20199;-84
2021/03/25 08:54:32;;;;;;;0.57;0.53;;;12.40;99.90;;;;;;5045119;28;20171;-85
2021/03/25 08:57:07;;;;;;;1.60;0.90;;;12.40;99.90;;;;;;5036730;28;20182;-85
2021/03/25 08:59:45;;;;;;;0.67;0.50;;;12.60;99.90;;;;;;5049392;28;20213;-85
2021/03/25 09:02:30;;;;;;;0.60;0.60;;;12.80;99.90;;;;;;5035715;28;20207;-85
2021/03/25 09:05:05;;;;;;;0.60;0.37;;;12.50;99.90;;;;;;5054912;28;20171;-85
2021/03/25 09:07:33;;;;;;;1.20;0.97;;;12.60;99.90;;;;;;5042325;28;20178;-85
2021/03/25 09:10:09;;;;;;;1.03;0.70;;;13.00;99.90;;;;;;5047996;28;20204;-84
2021/03/25 09:12:35;;;;;;;2.80;0.50;;;13.20;99.90;;;;;;5039560;28;20185;-85
2021/03/25 09:15:04;;;;;;;0.43;0.43;;;13.30;99.90;;;;;;5047525;28;20185;-85
2021/03/25 09:17:48;;;;;;;1.60;0.77;;;13.40;99.90;;;;;;5049824;28;20179;-85
2021/03/25 09:20:28;;;;;;;0.63;0.63;;;13.50;99.90;;;;;;5048077;28;20264;-83
2021/03/25 09:22:58;;;;;;;0.93;0.60;;;13.60;99.90;;;;;;5044521;28;20177;-84
2021/03/25 09:25:27;;;;;;;0.67;0.67;;;13.70;99.90;;;;;;5044677;28;20175;-83
2021/03/25 09:28:11;;;;;;;1.20;0.87;;;13.80;99.90;;;;;;5045233;28;20742;-86
2021/03/25 09:31:06;;;;;;;2.10;0.77;;;14.00;99.90;;;;;;5050857;28;20213;-83
2021/03/25 09:33:54;;;;;;;0.30;0.30;;;13.90;99.90;;;;;;5041761;28;20195;-83
2021/03/25 09:36:20;;;;;;;1.37;1.27;;;14.10;99.90;;;;;;5039422;28;20217;-83
2021/03/25 09:38:50;;;;;;;3.07;1.27;;;14.20;99.90;;;;;;5041951;28;20283;-84
2021/03/25 09:41:25;;;;;;;0.40;0.40;;;14.30;99.90;;;;;;5046172;28;20199;-83
2021/03/25 09:43:58;;;;;;;2.13;1.93;;;14.30;99.90;;;;;;5054377;28;20183;-85
2021/03/25 09:46:43;;;;;;;4.20;1.07;;;14.30;99.90;;;;;;5039772;28;20189;-83
2021/03/25 09:49:15;;;;;;;1.17;1.07;;;14.30;99.90;;;;;;5042615;28;20560;-84
2021/03/25 09:51:42;;;;;;;1.27;1.20;;;14.40;99.90;;;;;;5040412;28;20555;-82
2021/03/25 09:54:24;;;;;;;1.20;1.10;;;14.30;99.90;;;;;;5048727;28;20208;-83
2021/03/25 09:57:17;;;;;;;0.90;0.90;;;14.50;99.90;;;;;;5045066;28;20204;-84
2021/03/25 09:59:53;;;;;;;0.60;0.60;;;14.60;99.90;;;;;;5037845;28;20212;-84
2021/03/25 10:02:45;;;;;;;2.80;1.47;;;14.70;99.90;;;;;;5036739;28;20313;-83
2021/03/25 10:05:27;;;;;;;0.43;0.43;;;14.80;99.90;;;;;;5051060;28;20228;-86
2021/03/25 10:07:57;;;;;;;2.90;1.30;;;14.70;99.90;;;;;;5039523;28;20181;-86
2021/03/25 10:10:33;;;;;;;1.10;1.00;;;14.60;99.90;;;;;;5035668;28;20216;-87
2021/03/25 10:13:01;;;;;;;0.93;0.60;;;14.80;99.90;;;;;;5046609;28;20693;-88
2021/03/25 10:15:41;;;;;;;2.47;0.83;;;14.80;99.90;;;;;;5048480;28;20681;-86
2021/03/25 10:18:15;;;;;;;1.63;0.60;;;14.60;99.90;;;;;;5046601;28;20258;-86
2021/03/25 10:20:47;;;;;;;0.93;0.87;;;14.70;99.90;;;;;;5040519;28;20220;-85
2021/03/25 10:23:32;;;;;;;1.83;1.30;;;14.70;99.90;;;;;;5042387;28;20592;-87
2021/03/25 10:26:03;;;;;;;0.83;0.53;;;14.90;99.90;;;;;;5036495;28;20667;-87
2021/03/25 10:28:42;;;;;;;1.40;1.00;;;15.00;99.90;;;;;;5050372;28;20182;-86
2021/03/25 10:31:24;;;;;;;2.13;1.27;;;14.70;99.90;;;;;;5049561;28;20184;-85
2021/03/25 10:33:54;;;;;;;1.50;0.97;;;14.60;99.90;;;;;;5040271;28;20192;-87
2021/03/25 10:36:35;;;;;;;1.63;0.97;;;14.30;99.90;;;;;;5049918;28;20184;-86
2021/03/25 10:39:03;;;;;;;1.03;0.83;;;14.30;99.90;;;;;;5044490;28;20913;-84
2021/03/25 10:41:35;;;;;;;0.87;0.80;;;14.50;99.90;;;;;;5051673;28;20230;-84
2021/03/25 10:44:25;;;;;;;1.77;1.67;;;14.70;99.90;;;;;;5045063;28;20579;-87
2021/03/25 10:46:53;;;;;;;2.10;1.17;;;14.60;99.90;;;;;;5048903;28;20206;-85
2021/03/25 10:49:25;;;;;;;0.60;0.60;;;14.70;99.90;;;;;;5043833;28;20304;-86
2021/03/25 10:51:52;;;;;;;1.60;0.83;;;14.80;99.90;;;;;;5043380;28;20181;-85
2021/03/25 10:54:26;;;;;;;5.73;2.03;;;14.90;99.90;;;;;;5053641;28;20185;-86
2021/03/25 10:57:13;;;;;;;0.93;0.93;;;14.90;99.90;;;;;;5040391;28;20179;-86
2021/03/25 10:59:52;;;;;;;1.90;1.17;;;14.90;99.90;;;;;;5049835;28;20683;-86
2021/03/25 11:02:26;;;;;;;3.40;1.33;;;14.90;99.90;;;;;;5053831;28;20695;-85
2021/03/25 11:05:17;;;;;;;1.17;0.90;;;15.20;99.90;;;;;;5048483;28;20189;-85
2021/03/25 11:07:48;;;;;;;0.60;0.60;;;15.30;99.90;;;;;;5041437;28;20183;-86
2021/03/25 11:10:22;;;;;;;0.63;0.63;;;15.40;99.90;;;;;;5040405;28;20224;-87
2021/03/25 11:13:02;;;;;;;1.90;1.20;;;15.60;99.90;;;;;;5046592;28;20229;-86
2021/03/25 11:15:36;;;;;;;1.20;0.83;;;15.60;99.90;;;;;;5048931;28;20178;-86
2021/03/25 11:18:30;;;;;;;1.63;1.30;;;15.50;99.90;;;;;;5043596;28;20178;-85
2021/03/25 11:20:56;;;;;;;0.77;0.70;;;15.70;99.90;;;;;;5039556;28;20278;-86
2021/03/25 11:23:24;;;;;;;0.20;0.20;;;15.90;99.90;;;;;;5036809;28;20759;-86
2021/03/25 11:25:59;;;;;;;2.57;0.53;;;16.10;99.90;;;;;;5045162;28;20178;-86
2021/03/25 11:28:28;;;;;;;1.13;1.10;;;16.20;99.90;;;;;;5049939;28;20176;-86
2021/03/25 11:31:14;;;;;;;1.93;0.87;;;16.40;99.90;;;;;;5035740;28;20215;-85
2021/03/25 11:33:41;;;;;;;0.63;0.53;;;16.60;99.90;;;;;;5045532;28;20191;-85
2021/03/25 11:36:09;;;;;;;1.10;0.83;;;16.90;99.90;;;;;;5039403;28;20213;-84
2021/03/25 11:38:41;;;;;;;5.20;1.50;;;17.00;99.90;;;;;;5043609;28;20297;-84
2021/03/25 11:41:31;;;;;;;0.30;0.30;;;17.20;99.90;;;;;;5040104;28;20203;-84
2021/03/25 11:44:00;;;;;;;0.93;0.93;;;17.30;99.90;;;;;;5043239;28;20182;-87
2021/03/25 11:46:28;;;;;;;0.83;0.80;;;17.50;99.90;;;;;;5050310;28;20181;-87
2021/03/25 11:49:07;;;;;;;1.30;0.73;;;17.60;99.90;;;;;;5046049;28;20171;-86
2021/03/25 11:51:36;;;;;;;1.00;0.60;;;17.60;99.90;;;;;;5047163;28;20185;-87
2021/03/25 11:54:34;;;;;;;0.97;0.90;;;17.60;99.90;;;;;;5050122;28;20201;-85
2021/03/25 11:57:09;;;;;;;0.87;0.87;;;17.60;99.90;;;;;;5047395;28;20185;-86
2021/03/25 11:59:38;;;;;;;0.43;0.43;;;17.50;99.90;;;;;;5044270;28;20263;-86
2021/03/25 12:02:16;;;;;;;1.10;1.10;;;17.60;99.90;;;;;;5043749;28;20224;-85
2021/03/25 12:04:41;;;;;;;3.57;1.80;;;17.50;99.90;;;;;;5047297;28;20185;-83
2021/03/25 12:07:13;;;;;;;1.43;0.60;;;17.50;99.90;;;;;;5046157;28;20678;-84
2021/03/25 12:10:15;;;;;;;3.27;1.23;;;17.70;99.90;;;;;;5044155;28;20208;-83
2021/03/25 12:12:47;;;;;;;0.77;0.77;;;17.80;99.90;;;;;;5048158;28;20201;-86
2021/03/25 12:15:14;;;;;;;1.10;0.60;;;17.90;99.90;;;;;;5039043;28;20236;-86
2021/03/25 12:17:55;;;;;;;2.73;1.63;;;18.00;99.90;;;;;;5049024;28;20178;-86
2021/03/25 12:20:27;;;;;;;2.33;1.27;;;18.10;99.90;;;;;;5052449;28;20247;-86
2021/03/25 12:23:18;;;;;;;1.27;0.87;;;18.20;99.90;;;;;;5049093;28;20185;-85
2021/03/25 12:25:46;;;;;;;4.03;1.30;;;18.30;99.90;;;;;;5047665;28;20187;-83
2021/03/25 12:28:12;;;;;;;3.67;0.97;;;18.50;99.90;;;;;;5047500;28;20194;-87
2021/03/25 12:30:39;;;;;;;1.17;1.07;;;18.30;99.90;;;;;;5048209;28;20217;-86
2021/03/25 12:33:05;;;;;;;0.87;0.80;;;18.40;99.90;;;;;;5045601;28;20182;-84
2021/03/25 12:35:31;;;;;;;1.43;0.60;;;18.40;99.90;;;;;;5045965;28;20186;-84
2021/03/25 12:37:57;;;;;;;2.60;1.37;;;18.40;99.90;;;;;;5041224;28;20273;-84
2021/03/25 12:40:24;;;;;;;3.80;0.90;;;18.30;99.90;;;;;;5047294;28;20759;-86
2021/03/25 12:42:51;;;;;;;1.63;1.27;;;18.30;99.90;;;;;;5042454;28;20266;-86
2021/03/25 12:45:36;;;;;;;1.60;0.77;;;18.40;99.90;;;;;;5045183;28;20763;-86
2021/03/25 12:48:02;;;;;;;1.17;1.10;;;18.50;99.90;;;;;;5036094;28;20174;-86
2021/03/25 12:50:29;;;;;;;3.53;1.63;;;18.40;99.90;;;;;;5041582;28;20258;-86
2021/03/25 12:52:55;;;;;;;1.93;1.47;;;18.50;99.90;;;;;;5048950;28;20182;-86
2021/03/25 12:55:22;;;;;;;1.30;1.20;;;18.50;99.90;;;;;;5044650;28;20269;-86
2021/03/25 12:57:49;;;;;;;5.73;1.57;;;18.50;99.90;;;;;;5040201;28;20191;-85
2021/03/25 13:00:36;;;;;;;9.77;2.40;;;18.40;99.90;;;;;;5043861;28;20621;-86
2021/03/25 13:03:03;;;;;;;3.37;1.63;;;18.40;99.90;;;;;;5039442;28;20178;-86
2021/03/25 13:05:29;;;;;;;2.97;1.07;;;18.30;99.90;;;;;;5054545;28;20213;-86
2021/03/25 13:07:55;;;;;;;0.73;0.50;;;18.40;99.90;;;;;;5035663;28;20192;-86
2021/03/25 13:10:23;;;;;;;3.40;1.67;;;18.60;99.90;;;;;;5033625;28;20782;-85
2021/03/25 13:12:49;;;;;;;0.77;0.70;;;18.70;99.90;;;;;;5043704;28;20186;-86
2021/03/25 13:15:16;;;;;;;2.80;1.13;;;18.70;99.90;;;;;;5050280;28;20265;-86
2021/03/25 13:17:42;;;;;;;2.43;1.83;;;18.70;99.90;;;;;;5047024;28;20209;-86
2021/03/25 13:20:11;;;;;;;3.37;1.80;;;18.70;99.90;;;;;;5045784;28;20222;-85
2021/03/25 13:22:36;;;;;;;3.97;2.40;;;18.60;99.90;;;;;;5039605;28;20216;-86
2021/03/25 13:25:05;;;;;;;2.57;1.80;;;18.70;99.90;;;;;;5039481;28;20186;-86
2021/03/25 13:27:31;;;;;;;2.93;1.33;;;18.70;99.90;;;;;;5036163;28;20174;-86
2021/03/25 13:29:57;;;;;;;5.57;1.97;;;18.80;99.90;;;;;;5039133;28;20213;-86
2021/03/25 13:32:22;;;;;;;1.80;1.67;;;18.70;99.90;;;;;;5046323;28;20196;-86
2021/03/25 13:34:48;;;;;;;3.67;2.30;;;18.50;99.90;;;;;;5055705;28;20185;-86